sensor_id;sensor_type;location;lat;lon;timestamp;temperature;humidity
16674;DHT22;8450;52.654;10.326;2022-08-02T04:30:10;8.20;99.90
16674;DHT22;8450;52.654;10.326;2022-08-02T04:32:36;8.20;99.90
16674;DHT22;8450;52.654;10.326;2022-08-02T04:35:02;8.30;99.90
16674;DHT22;8450;52.654;10.326;2022-08-02T04:37:28;8.30;99.90
16674;DHT22;8450;52.654;10.326;2022-08-02T04:39:54;8.40;99.90
16674;DHT22;8450;52.654;10.326;2022-08-02T04:42:24;8.50;99.90
16674;DHT22;8450;52.654;10.326;2022-08-02T04:44:51;8.50;99.90
16674;DHT22;8450;52.654;10.326;2022-08-02T04:47:17;8.60;99.90
16674;DHT22;8450;52.654;10.326;2022-08-02T04:49:43;8.70;99.90
16674;DHT22;8450;52.654;10.326;2022-08-02T04:52:08;8.70;99.90
16674;DHT22;8450;52.654;10.326;2022-08-02T04:54:34;8.70;99.90
16674;DHT22;8450;52.654;10.326;2022-08-02T04:57:00;8.80;99.90
16674;DHT22;8450;52.654;10.326;2022-08-02T04:59:25;8.80;99.90
16674;DHT22;8450;52.654;10.326;2022-08-02T05:01:51;8.90;99.90
16674;DHT22;8450;52.654;10.326;2022-08-02T05:04:17;8.90;99.90
16674;DHT22;8450;52.654;10.326;2022-08-02T05:06:42;9.00;99.90
16674;DHT22;8450;52.654;10.326;2022-08-02T05:09:08;9.00;99.90
16674;DHT22;8450;52.654;10.326;2022-08-02T05:11:33;9.20;99.90
16674;DHT22;8450;52.654;10.326;2022-08-02T05:13:59;9.20;99.90
16674;DHT22;8450;52.654;10.326;2022-08-02T05:16:25;9.30;99.90
16674;DHT22;8450;52.654;10.326;2022-08-02T05:18:50;9.40;99.90
16674;DHT22;8450;52.654;10.326;2022-08-02T05:21:16;9.40;99.90
16674;DHT22;8450;52.654;10.326;2022-08-02T05:23:42;9.40;99.90
16674;DHT22;8450;52.654;10.326;2022-08-02T05:26:08;9.50;99.90
16674;DHT22;8450;52.654;10.326;2022-08-02T05:28:33;9.50;99.90
16674;DHT22;8450;52.654;10.326;2022-08-02T05:30:59;9.60;99.90
16674;DHT22;8450;52.654;10.326;2022-08-02T05:33:25;9.70;99.90
16674;DHT22;8450;52.654;10.326;2022-08-02T05:35:50;9.80;99.90
16674;DHT22;8450;52.654;10.326;2022-08-02T05:38:16;10.00;99.90
16674;DHT22;8450;52.654;10.326;2022-08-02T05:40:41;10.10;99.90
16674;DHT22;8450;52.654;10.326;2022-08-02T05:43:14;10.20;99.90
16674;DHT22;8450;52.654;10.326;2022-08-02T05:45:40;10.40;99.90
16674;DHT22;8450;52.654;10.326;2022-08-02T05:48:06;10.50;99.90
16674;DHT22;8450;52.654;10.326;2022-08-02T05:50:35;10.70;99.90
16674;DHT22;8450;52.654;10.326;2022-08-02T05:53:04;10.90;99.90
16674;DHT22;8450;52.654;10.326;2022-08-02T05:55:44;11.10;99.90
16674;DHT22;8450;52.654;10.326;2022-08-02T05:58:17;11.30;99.90
16674;DHT22;8450;52.654;10.326;2022-08-02T06:00:48;11.40;99.90
16674;DHT22;8450;52.654;10.326;2022-08-02T06:03:24;11.50;99.90
16674;DHT22;8450;52.654;10.326;2022-08-02T06:06:12;11.60;99.90
16674;DHT22;8450;52.654;10.326;2022-08-02T06:08:41;11.80;99.90
16674;DHT22;8450;52.654;10.326;2022-08-02T06:11:11;12.00;99.90
16674;DHT22;8450;52.654;10.326;2022-08-02T06:13:39;12.10;99.90
16674;DHT22;8450;52.654;10.326;2022-08-02T06:16:05;12.20;99.90
16674;DHT22;8450;52.654;10.326;2022-08-02T06:18:32;12.40;99.90
16674;DHT22;8450;52.654;10.326;2022-08-02T06:21:01;12.60;99.90
16674;DHT22;8450;52.654;10.326;2022-08-02T06:23:28;12.90;99.90
16674;DHT22;8450;52.654;10.326;2022-08-02T06:25:55;13.00;99.90
16674;DHT22;8450;52.654;10.326;2022-08-02T06:28:22;13.20;99.90
16674;DHT22;8450;52.654;10.326;2022-08-02T06:30:48;13.40;99.90
16674;DHT22;8450;52.654;10.326;2022-08-02T06:33:13;13.60;99.90
16674;DHT22;8450;52.654;10.326;2022-08-02T06:35:52;13.70;99.90
16674;DHT22;8450;52.654;10.326;2022-08-02T06:38:24;14.00;99.90
16674;DHT22;8450;52.654;10.326;2022-08-02T06:41:00;14.20;99.90
16674;DHT22;8450;52.654;10.326;2022-08-02T06:46:02;14.60;99.90
16674;DHT22;8450;52.654;10.326;2022-08-02T06:48:29;14.90;99.90
16674;DHT22;8450;52.654;10.326;2022-08-02T06:50:55;15.10;99.90
16674;DHT22;8450;52.654;10.326;2022-08-02T06:53:20;15.20;99.90
16674;DHT22;8450;52.654;10.326;2022-08-02T06:55:46;15.40;99.90
16674;DHT22;8450;52.654;10.326;2022-08-02T06:58:12;15.60;99.90
16674;DHT22;8450;52.654;10.326;2022-08-02T07:00:39;15.90;99.90
16674;DHT22;8450;52.654;10.326;2022-08-02T07:03:05;16.10;99.90
16674;DHT22;8450;52.654;10.326;2022-08-02T07:05:30;16.40;99.90
16674;DHT22;8450;52.654;10.326;2022-08-02T07:07:56;16.60;99.90
16674;DHT22;8450;52.654;10.326;2022-08-02T07:10:21;16.80;99.90
16674;DHT22;8450;52.654;10.326;2022-08-02T07:12:47;16.90;99.90
16674;DHT22;8450;52.654;10.326;2022-08-02T07:15:13;17.00;99.90
16674;DHT22;8450;52.654;10.326;2022-08-02T07:17:40;17.20;99.90
16674;DHT22;8450;52.654;10.326;2022-08-02T07:20:06;17.50;99.90
16674;DHT22;8450;52.654;10.326;2022-08-02T07:22:34;17.60;99.90
16674;DHT22;8450;52.654;10.326;2022-08-02T07:25:00;17.70;99.90
16674;DHT22;8450;52.654;10.326;2022-08-02T07:27:27;18.00;99.90
16674;DHT22;8450;52.654;10.326;2022-08-02T07:29:53;18.20;99.90
16674;DHT22;8450;52.654;10.326;2022-08-02T07:32:22;18.40;99.90
16674;DHT22;8450;52.654;10.326;2022-08-02T07:34:48;18.50;99.90
16674;DHT22;8450;52.654;10.326;2022-08-02T07:37:14;18.70;99.90
16674;DHT22;8450;52.654;10.326;2022-08-02T07:39:40;18.80;99.90
16674;DHT22;8450;52.654;10.326;2022-08-02T07:42:05;19.10;99.90
16674;DHT22;8450;52.654;10.326;2022-08-02T07:44:31;19.20;99.90
16674;DHT22;8450;52.654;10.326;2022-08-02T07:47:03;19.40;99.90
16674;DHT22;8450;52.654;10.326;2022-08-02T07:49:29;19.50;99.90
16674;DHT22;8450;52.654;10.326;2022-08-02T07:51:55;19.70;99.90
16674;DHT22;8450;52.654;10.326;2022-08-02T07:54:21;20.10;99.90
16674;DHT22;8450;52.654;10.326;2022-08-02T07:56:46;20.20;99.90
16674;DHT22;8450;52.654;10.326;2022-08-02T07:59:12;20.50;99.90
16674;DHT22;8450;52.654;10.326;2022-08-02T08:01:38;20.60;99.90
16674;DHT22;8450;52.654;10.326;2022-08-02T08:04:04;20.80;99.90
16674;DHT22;8450;52.654;10.326;2022-08-02T08:06:30;20.90;99.90
16674;DHT22;8450;52.654;10.326;2022-08-02T08:08:56;21.20;99.90
16674;DHT22;8450;52.654;10.326;2022-08-02T08:11:22;21.50;99.90
16674;DHT22;8450;52.654;10.326;2022-08-02T08:13:47;21.40;99.90
16674;DHT22;8450;52.654;10.326;2022-08-02T08:16:13;21.60;99.90
16674;DHT22;8450;52.654;10.326;2022-08-02T08:18:38;21.30;99.90
16674;DHT22;8450;52.654;10.326;2022-08-02T08:21:04;21.80;99.90
16674;DHT22;8450;52.654;10.326;2022-08-02T08:23:30;22.10;99.90
16674;DHT22;8450;52.654;10.326;2022-08-02T08:25:56;22.10;99.90
16674;DHT22;8450;52.654;10.326;2022-08-02T08:28:21;22.10;99.90
16674;DHT22;8450;52.654;10.326;2022-08-02T08:30:47;22.40;99.90
16674;DHT22;8450;52.654;10.326;2022-08-02T08:33:13;22.60;99.90
16674;DHT22;8450;52.654;10.326;2022-08-02T08:35:39;22.80;99.90
16674;DHT22;8450;52.654;10.326;2022-08-02T08:38:04;23.00;99.90
16674;DHT22;8450;52.654;10.326;2022-08-02T08:40:30;23.00;99.90
16674;DHT22;8450;52.654;10.326;2022-08-02T08:42:56;22.90;99.90
16674;DHT22;8450;52.654;10.326;2022-08-02T08:45:22;22.70;99.90
16674;DHT22;8450;52.654;10.326;2022-08-02T08:47:53;23.10;99.90
16674;DHT22;8450;52.654;10.326;2022-08-02T08:50:24;23.10;99.90
16674;DHT22;8450;52.654;10.326;2022-08-02T08:52:58;23.50;99.90
16674;DHT22;8450;52.654;10.326;2022-08-02T08:55:26;23.50;99.90
16674;DHT22;8450;52.654;10.326;2022-08-02T08:57:53;23.60;99.90
16674;DHT22;8450;52.654;10.326;2022-08-02T09:00:19;23.60;99.90
16674;DHT22;8450;52.654;10.326;2022-08-02T09:02:45;24.30;99.90
16674;DHT22;8450;52.654;10.326;2022-08-02T09:05:13;24.70;99.90
16674;DHT22;8450;52.654;10.326;2022-08-02T09:07:39;25.00;99.90
16674;DHT22;8450;52.654;10.326;2022-08-02T09:13:18;25.40;99.90
16674;DHT22;8450;52.654;10.326;2022-08-02T09:15:55;25.90;99.90
16674;DHT22;8450;52.654;10.326;2022-08-02T09:18:34;25.90;99.90
16674;DHT22;8450;52.654;10.326;2022-08-02T09:21:03;26.00;99.90
16674;DHT22;8450;52.654;10.326;2022-08-02T09:23:40;25.40;99.90
16674;DHT22;8450;52.654;10.326;2022-08-02T09:26:10;25.20;99.90
16674;DHT22;8450;52.654;10.326;2022-08-02T09:28:38;25.60;99.90
16674;DHT22;8450;52.654;10.326;2022-08-02T09:31:09;25.90;99.90
16674;DHT22;8450;52.654;10.326;2022-08-02T09:33:37;26.00;99.90
16674;DHT22;8450;52.654;10.326;2022-08-02T09:36:13;26.30;99.90
16674;DHT22;8450;52.654;10.326;2022-08-02T09:38:53;25.80;99.90
16674;DHT22;8450;52.654;10.326;2022-08-02T09:41:21;26.10;99.90
16674;DHT22;8450;52.654;10.326;2022-08-02T09:43:46;26.60;99.90
16674;DHT22;8450;52.654;10.326;2022-08-02T09:46:24;27.00;99.90
16674;DHT22;8450;52.654;10.326;2022-08-02T09:48:51;27.20;99.90
16674;DHT22;8450;52.654;10.326;2022-08-02T09:51:22;26.70;99.90
16674;DHT22;8450;52.654;10.326;2022-08-02T09:53:50;26.50;99.90
16674;DHT22;8450;52.654;10.326;2022-08-02T09:56:17;26.90;99.90
16674;DHT22;8450;52.654;10.326;2022-08-02T09:58:43;27.30;99.90
16674;DHT22;8450;52.654;10.326;2022-08-02T10:01:09;27.50;99.90
16674;DHT22;8450;52.654;10.326;2022-08-02T10:03:34;27.80;99.90
16674;DHT22;8450;52.654;10.326;2022-08-02T10:06:00;27.60;99.90
16674;DHT22;8450;52.654;10.326;2022-08-02T10:08:27;28.00;99.90
16674;DHT22;8450;52.654;10.326;2022-08-02T10:10:54;26.90;99.90
16674;DHT22;8450;52.654;10.326;2022-08-02T10:13:31;26.80;99.90
16674;DHT22;8450;52.654;10.326;2022-08-02T10:15:57;26.80;99.90
16674;DHT22;8450;52.654;10.326;2022-08-02T10:18:23;27.60;99.90
16674;DHT22;8450;52.654;10.326;2022-08-02T10:20:50;28.20;99.90
16674;DHT22;8450;52.654;10.326;2022-08-02T10:23:16;28.80;99.90
16674;DHT22;8450;52.654;10.326;2022-08-02T10:25:47;28.90;99.90
16674;DHT22;8450;52.654;10.326;2022-08-02T10:28:15;29.20;99.90
16674;DHT22;8450;52.654;10.326;2022-08-02T10:30:44;29.20;99.90
16674;DHT22;8450;52.654;10.326;2022-08-02T10:33:16;28.90;99.90
16674;DHT22;8450;52.654;10.326;2022-08-02T10:35:42;29.00;99.90
16674;DHT22;8450;52.654;10.326;2022-08-02T10:38:10;28.60;99.90
16674;DHT22;8450;52.654;10.326;2022-08-02T10:40:47;28.20;99.90
16674;DHT22;8450;52.654;10.326;2022-08-02T10:46:23;28.40;99.90
16674;DHT22;8450;52.654;10.326;2022-08-02T10:49:18;28.40;99.90
16674;DHT22;8450;52.654;10.326;2022-08-02T10:54:41;28.70;99.90
16674;DHT22;8450;52.654;10.326;2022-08-02T10:57:17;29.10;99.90
16674;DHT22;8450;52.654;10.326;2022-08-02T10:59:43;28.90;99.90
16674;DHT22;8450;52.654;10.326;2022-08-02T11:02:10;29.20;99.90
16674;DHT22;8450;52.654;10.326;2022-08-02T11:07:11;29.30;99.90
16674;DHT22;8450;52.654;10.326;2022-08-02T11:09:42;29.70;99.90
16674;DHT22;8450;52.654;10.326;2022-08-02T11:12:13;30.20;99.90
16674;DHT22;8450;52.654;10.326;2022-08-02T11:14:41;30.30;99.90
16674;DHT22;8450;52.654;10.326;2022-08-02T11:17:11;30.60;99.90
16674;DHT22;8450;52.654;10.326;2022-08-02T11:22:41;30.60;99.90
16674;DHT22;8450;52.654;10.326;2022-08-02T11:28:08;31.30;99.90
16674;DHT22;8450;52.654;10.326;2022-08-02T11:30:34;31.00;99.90
16674;DHT22;8450;52.654;10.326;2022-08-02T11:33:00;30.70;99.90
16674;DHT22;8450;52.654;10.326;2022-08-02T11:35:34;29.90;99.90
16674;DHT22;8450;52.654;10.326;2022-08-02T11:38:19;30.70;99.90
16674;DHT22;8450;52.654;10.326;2022-08-02T11:40:46;30.20;99.90
16674;DHT22;8450;52.654;10.326;2022-08-02T11:43:22;29.20;99.90
16674;DHT22;8450;52.654;10.326;2022-08-02T11:45:50;29.70;99.90
16674;DHT22;8450;52.654;10.326;2022-08-02T11:48:36;30.10;99.90
16674;DHT22;8450;52.654;10.326;2022-08-02T11:53:41;30.30;99.90
16674;DHT22;8450;52.654;10.326;2022-08-02T11:56:09;30.90;99.90
16674;DHT22;8450;52.654;10.326;2022-08-02T11:58:35;30.30;99.90
16674;DHT22;8450;52.654;10.326;2022-08-02T12:01:02;30.30;99.30
16674;DHT22;8450;52.654;10.326;2022-08-02T12:03:35;30.10;99.90
16674;DHT22;8450;52.654;10.326;2022-08-02T12:06:01;30.00;99.90
16674;DHT22;8450;52.654;10.326;2022-08-02T12:08:27;30.20;99.90
16674;DHT22;8450;52.654;10.326;2022-08-02T12:10:52;30.40;99.90
16674;DHT22;8450;52.654;10.326;2022-08-02T12:13:18;30.60;99.90
16674;DHT22;8450;52.654;10.326;2022-08-02T12:15:45;30.70;99.90
16674;DHT22;8450;52.654;10.326;2022-08-02T12:18:13;30.10;97.10
16674;DHT22;8450;52.654;10.326;2022-08-02T12:20:58;30.60;98.90
16674;DHT22;8450;52.654;10.326;2022-08-02T12:23:24;30.80;99.00
16674;DHT22;8450;52.654;10.326;2022-08-02T12:26:06;30.60;97.20
16674;DHT22;8450;52.654;10.326;2022-08-02T12:28:35;30.70;99.30
16674;DHT22;8450;52.654;10.326;2022-08-02T12:31:05;30.70;99.90
16674;DHT22;8450;52.654;10.326;2022-08-02T12:34:09;30.40;97.90
16674;DHT22;8450;52.654;10.326;2022-08-02T12:36:35;30.50;98.20
16674;DHT22;8450;52.654;10.326;2022-08-02T12:39:01;30.60;98.20
16674;DHT22;8450;52.654;10.326;2022-08-02T12:41:28;31.00;99.90
16674;DHT22;8450;52.654;10.326;2022-08-02T12:43:54;31.30;99.90
16674;DHT22;8450;52.654;10.326;2022-08-02T12:46:22;31.40;99.20
16674;DHT22;8450;52.654;10.326;2022-08-02T12:48:48;30.60;96.60
16674;DHT22;8450;52.654;10.326;2022-08-02T12:51:26;30.90;98.10
16674;DHT22;8450;52.654;10.326;2022-08-02T12:54:11;31.90;98.30
16674;DHT22;8450;52.654;10.326;2022-08-02T12:56:38;31.70;98.10
16674;DHT22;8450;52.654;10.326;2022-08-02T12:59:04;31.50;98.20
16674;DHT22;8450;52.654;10.326;2022-08-02T13:01:30;31.50;98.20
16674;DHT22;8450;52.654;10.326;2022-08-02T13:03:56;31.40;97.20
16674;DHT22;8450;52.654;10.326;2022-08-02T13:06:22;31.80;97.20
16674;DHT22;8450;52.654;10.326;2022-08-02T13:08:48;31.20;96.40
16674;DHT22;8450;52.654;10.326;2022-08-02T13:11:14;31.80;99.70
16674;DHT22;8450;52.654;10.326;2022-08-02T13:13:40;31.70;95.00
16674;DHT22;8450;52.654;10.326;2022-08-02T13:16:06;31.40;95.70
16674;DHT22;8450;52.654;10.326;2022-08-02T13:18:33;31.90;97.70
16674;DHT22;8450;52.654;10.326;2022-08-02T13:20:59;32.10;96.60
16674;DHT22;8450;52.654;10.326;2022-08-02T13:23:24;32.40;96.60
16674;DHT22;8450;52.654;10.326;2022-08-02T13:25:50;32.50;95.70
16674;DHT22;8450;52.654;10.326;2022-08-02T13:28:17;33.10;96.80
16674;DHT22;8450;52.654;10.326;2022-08-02T13:30:43;33.20;95.30
16674;DHT22;8450;52.654;10.326;2022-08-02T13:33:10;32.80;97.30
16674;DHT22;8450;52.654;10.326;2022-08-02T13:35:36;32.90;93.30
16674;DHT22;8450;52.654;10.326;2022-08-02T13:38:01;32.60;93.30
16674;DHT22;8450;52.654;10.326;2022-08-02T13:40:28;32.90;97.10
16674;DHT22;8450;52.654;10.326;2022-08-02T13:42:54;33.40;94.90
16674;DHT22;8450;52.654;10.326;2022-08-02T13:45:19;33.20;93.90
16674;DHT22;8450;52.654;10.326;2022-08-02T13:47:45;31.70;93.80
16674;DHT22;8450;52.654;10.326;2022-08-02T13:50:11;32.50;96.20
16674;DHT22;8450;52.654;10.326;2022-08-02T13:52:37;33.50;96.70
16674;DHT22;8450;52.654;10.326;2022-08-02T13:55:03;33.50;95.60
16674;DHT22;8450;52.654;10.326;2022-08-02T13:57:28;33.10;93.30
16674;DHT22;8450;52.654;10.326;2022-08-02T13:59:54;33.30;96.30
16674;DHT22;8450;52.654;10.326;2022-08-02T14:02:19;33.40;94.40
16674;DHT22;8450;52.654;10.326;2022-08-02T14:04:45;32.50;94.00
16674;DHT22;8450;52.654;10.326;2022-08-02T14:07:11;32.90;96.10
16674;DHT22;8450;52.654;10.326;2022-08-02T14:09:37;32.40;94.30
16674;DHT22;8450;52.654;10.326;2022-08-02T14:12:04;30.70;93.80
16674;DHT22;8450;52.654;10.326;2022-08-02T14:14:30;30.30;95.20
16674;DHT22;8450;52.654;10.326;2022-08-02T14:16:55;29.50;95.00
16674;DHT22;8450;52.654;10.326;2022-08-02T14:19:21;29.70;95.40
16674;DHT22;8450;52.654;10.326;2022-08-02T14:21:48;29.60;94.90
16674;DHT22;8450;52.654;10.326;2022-08-02T14:24:18;29.40;95.50
16674;DHT22;8450;52.654;10.326;2022-08-02T14:26:45;29.90;96.00
16674;DHT22;8450;52.654;10.326;2022-08-02T14:29:11;30.40;95.20
16674;DHT22;8450;52.654;10.326;2022-08-02T14:31:36;30.30;95.10
16674;DHT22;8450;52.654;10.326;2022-08-02T14:34:02;30.20;95.30
16674;DHT22;8450;52.654;10.326;2022-08-02T14:36:27;30.10;95.10
16674;DHT22;8450;52.654;10.326;2022-08-02T14:38:54;29.80;95.60
16674;DHT22;8450;52.654;10.326;2022-08-02T14:41:19;30.30;96.60
16674;DHT22;8450;52.654;10.326;2022-08-02T14:43:45;29.80;95.40
16674;DHT22;8450;52.654;10.326;2022-08-02T14:46:38;29.60;95.90
16674;DHT22;8450;52.654;10.326;2022-08-02T14:49:07;29.80;98.00
16674;DHT22;8450;52.654;10.326;2022-08-02T14:51:34;29.70;96.60
16674;DHT22;8450;52.654;10.326;2022-08-02T14:54:01;29.40;96.90
16674;DHT22;8450;52.654;10.326;2022-08-02T14:56:26;29.40;97.40
16674;DHT22;8450;52.654;10.326;2022-08-02T14:58:52;29.60;98.30
16674;DHT22;8450;52.654;10.326;2022-08-02T15:01:18;29.30;97.30
16674;DHT22;8450;52.654;10.326;2022-08-02T15:03:44;29.30;98.00
16674;DHT22;8450;52.654;10.326;2022-08-02T15:06:09;30.00;97.90
16674;DHT22;8450;52.654;10.326;2022-08-02T15:08:35;30.80;97.10
16674;DHT22;8450;52.654;10.326;2022-08-02T15:11:01;31.50;97.60
16674;DHT22;8450;52.654;10.326;2022-08-02T15:13:26;31.00;97.90
16674;DHT22;8450;52.654;10.326;2022-08-02T15:15:52;30.50;97.20
16674;DHT22;8450;52.654;10.326;2022-08-02T15:18:17;31.70;97.30
16674;DHT22;8450;52.654;10.326;2022-08-02T15:20:43;31.80;95.60
16674;DHT22;8450;52.654;10.326;2022-08-02T15:23:14;31.00;96.00
16674;DHT22;8450;52.654;10.326;2022-08-02T15:25:41;30.90;97.40
16674;DHT22;8450;52.654;10.326;2022-08-02T15:28:07;32.00;98.00
16674;DHT22;8450;52.654;10.326;2022-08-02T15:30:33;31.30;95.80
16674;DHT22;8450;52.654;10.326;2022-08-02T15:32:59;32.70;97.10
16674;DHT22;8450;52.654;10.326;2022-08-02T15:35:25;32.60;96.60
16674;DHT22;8450;52.654;10.326;2022-08-02T15:37:50;33.00;96.70
16674;DHT22;8450;52.654;10.326;2022-08-02T15:40:16;33.20;96.50
16674;DHT22;8450;52.654;10.326;2022-08-02T15:42:42;33.00;95.80
16674;DHT22;8450;52.654;10.326;2022-08-02T15:45:11;33.60;94.80
16674;DHT22;8450;52.654;10.326;2022-08-02T15:47:37;32.50;95.90
16674;DHT22;8450;52.654;10.326;2022-08-02T15:50:02;33.10;95.40
16674;DHT22;8450;52.654;10.326;2022-08-02T15:52:28;33.30;95.80
16674;DHT22;8450;52.654;10.326;2022-08-02T15:54:54;33.20;95.10
16674;DHT22;8450;52.654;10.326;2022-08-02T15:57:19;33.10;96.80
16674;DHT22;8450;52.654;10.326;2022-08-02T15:59:45;33.50;95.90
16674;DHT22;8450;52.654;10.326;2022-08-02T16:02:11;35.00;96.40
16674;DHT22;8450;52.654;10.326;2022-08-02T16:04:37;35.50;96.60
16674;DHT22;8450;52.654;10.326;2022-08-02T16:07:03;32.90;94.70
16674;DHT22;8450;52.654;10.326;2022-08-02T16:09:29;34.60;97.20
16674;DHT22;8450;52.654;10.326;2022-08-02T16:11:55;34.50;94.90
16674;DHT22;8450;52.654;10.326;2022-08-02T16:14:20;32.80;94.30
16674;DHT22;8450;52.654;10.326;2022-08-02T16:16:46;32.50;95.60
16674;DHT22;8450;52.654;10.326;2022-08-02T16:19:11;32.80;96.90
16674;DHT22;8450;52.654;10.326;2022-08-02T16:21:37;32.20;95.30
16674;DHT22;8450;52.654;10.326;2022-08-02T16:24:02;31.80;95.50
16674;DHT22;8450;52.654;10.326;2022-08-02T16:26:30;33.30;95.20
16674;DHT22;8450;52.654;10.326;2022-08-02T16:28:56;34.10;97.40
16674;DHT22;8450;52.654;10.326;2022-08-02T16:31:21;33.80;95.80
16674;DHT22;8450;52.654;10.326;2022-08-02T16:33:48;34.20;95.30
16674;DHT22;8450;52.654;10.326;2022-08-02T16:36:14;34.20;97.00
16674;DHT22;8450;52.654;10.326;2022-08-02T16:38:40;34.70;96.40
16674;DHT22;8450;52.654;10.326;2022-08-02T16:41:06;34.70;95.60
16674;DHT22;8450;52.654;10.326;2022-08-02T16:43:35;34.40;94.70
16674;DHT22;8450;52.654;10.326;2022-08-02T16:46:00;34.60;94.20
16674;DHT22;8450;52.654;10.326;2022-08-02T16:48:26;34.90;96.10
16674;DHT22;8450;52.654;10.326;2022-08-02T16:50:52;34.70;94.90
16674;DHT22;8450;52.654;10.326;2022-08-02T16:53:18;33.20;94.80
16674;DHT22;8450;52.654;10.326;2022-08-02T16:55:44;32.40;94.70
16674;DHT22;8450;52.654;10.326;2022-08-02T16:58:09;31.60;95.00
16674;DHT22;8450;52.654;10.326;2022-08-02T17:00:35;31.60;96.90
16674;DHT22;8450;52.654;10.326;2022-08-02T17:03:00;31.20;96.50
16674;DHT22;8450;52.654;10.326;2022-08-02T17:05:30;30.90;96.10
16674;DHT22;8450;52.654;10.326;2022-08-02T17:07:57;30.60;97.00
16674;DHT22;8450;52.654;10.326;2022-08-02T17:10:24;30.10;96.90
16674;DHT22;8450;52.654;10.326;2022-08-02T17:12:51;30.00;98.60
16674;DHT22;8450;52.654;10.326;2022-08-02T17:15:17;29.50;97.60
16674;DHT22;8450;52.654;10.326;2022-08-02T17:17:42;29.10;97.40
16674;DHT22;8450;52.654;10.326;2022-08-02T17:20:08;29.00;97.50
16674;DHT22;8450;52.654;10.326;2022-08-02T17:22:34;28.80;97.80
16674;DHT22;8450;52.654;10.326;2022-08-02T17:24:59;28.60;97.90
16674;DHT22;8450;52.654;10.326;2022-08-02T17:27:25;28.40;98.30
16674;DHT22;8450;52.654;10.326;2022-08-02T17:29:51;28.40;98.70
16674;DHT22;8450;52.654;10.326;2022-08-02T17:32:16;28.40;98.50
16674;DHT22;8450;52.654;10.326;2022-08-02T17:34:42;28.30;98.20
16674;DHT22;8450;52.654;10.326;2022-08-02T17:37:07;28.60;99.00
16674;DHT22;8450;52.654;10.326;2022-08-02T17:39:34;29.10;99.90
16674;DHT22;8450;52.654;10.326;2022-08-02T17:42:00;29.70;97.50
16674;DHT22;8450;52.654;10.326;2022-08-02T17:44:26;29.50;99.90
16674;DHT22;8450;52.654;10.326;2022-08-02T17:46:51;30.90;99.90
16674;DHT22;8450;52.654;10.326;2022-08-02T17:49:17;31.80;99.90
16674;DHT22;8450;52.654;10.326;2022-08-02T17:51:46;31.50;96.90
16674;DHT22;8450;52.654;10.326;2022-08-02T17:54:12;30.40;96.90
16674;DHT22;8450;52.654;10.326;2022-08-02T17:56:38;29.40;97.90
